Temp: 12.7°C   Baro: 995.1mb
  Wind: 2.9mph   Dir: SW (218°)
  Rain: 1.8mm (0.0mm/hr)
  Solar: 107W/m2  Hum: 84%
 
Bath Spa Weather Station Historical Data
Daily Summary for April 11, 2021 Units:  Metric    English   Both
Daily Weekly Monthly Yearly Custom
  High: Low: Average:
Temperature: 8.7 °C 0.4 °C 3.9 °C
Dew Point: 2.3 °C -0.9 °C 0.9 °C
Humidity: 90% 55.8% 79%
Wind Speed: 23.8km/h 0km/h 4.5km/h
Wind Gust: 40.2km/h - -
Wind- - South
Pressure: 1026.3 hPa 1015.1 hPa -
Precipitation: 0.25 mm    
Historical Graphs
 
 
Tabular Data for April 11, 2021
Time Temperature Dew Point Pressure Wind Wind Speed Wind Gust Humidity Rainfall Rate (Hourly) solar
00:04 2.7 °C 1.2 °C 1015.1 hPa WNW 5.1 km/h 9.7 km/h 86% 0 mm 0 W/m2
00:09 2.7 °C 1.2 °C 1015.1 hPa WNW 7.2 km/h 9.7 km/h 87% 0 mm 0 W/m2
00:14 2.6 °C 1.1 °C 1015.5 hPa NW 5.6 km/h 16.1 km/h 87% 0 mm 0 W/m2
00:29 2.3 °C 0.9 °C 1015.5 hPa NNW 3.9 km/h 11.3 km/h 87% 0 mm 0 W/m2
00:34 2.3 °C 1 °C 1015.5 hPa North 4.8 km/h 11.3 km/h 88% 0 mm 0 W/m2
00:39 2.3 °C 1 °C 1015.5 hPa North 4.3 km/h 6.4 km/h 88% 0 mm 0 W/m2
00:44 2.3 °C 0.9 °C 1015.5 hPa North 4.5 km/h 8 km/h 88% 0 mm 0 W/m2
00:49 2.3 °C 1 °C 1015.5 hPa North 2.6 km/h 11.3 km/h 88% 0 mm 0 W/m2
00:54 2.3 °C 1 °C 1015.5 hPa North 1.9 km/h 6.4 km/h 88% 0 mm 0 W/m2
00:59 2.3 °C 1 °C 1015.5 hPa North 1.6 km/h 8 km/h 88% 0 mm 0 W/m2
01:04 2.3 °C 0.9 °C 1015.5 hPa North 1 km/h 8 km/h 88% 0 mm 0 W/m2
01:09 2.2 °C 0.9 °C 1015.5 hPa North 3.2 km/h 6.4 km/h 88% 0 mm 0 W/m2
01:14 2.2 °C 0.9 °C 1015.5 hPa North 1.6 km/h 6.4 km/h 88% 0 mm 0 W/m2
01:19 2.2 °C 0.9 °C 1015.5 hPa North 0.3 km/h 4.8 km/h 88% 0 mm 0 W/m2
01:24 2.3 °C 1 °C 1015.5 hPa Calm   1.6 km/h 88% 0 mm 0 W/m2
01:29 2.3 °C 1 °C 1015.5 hPa North 0.3 km/h 3.2 km/h 88% 0 mm 0 W/m2
01:34 2.3 °C 1 °C 1015.5 hPa Calm     88% 0 mm 0 W/m2
01:39 2.3 °C 1 °C 1015.5 hPa Calm     88% 0 mm 0 W/m2
01:44 2.3 °C 1.1 °C 1015.5 hPa Calm     88% 0 mm 0 W/m2
01:49 2.3 °C 1 °C 1015.5 hPa North 1.6 km/h 4.8 km/h 88% 0 mm 0 W/m2
01:59 2.3 °C 0.9 °C 1015.5 hPa North 2.7 km/h 8 km/h 87% 0 mm 0 W/m2
02:03 2.3 °C 0.8 °C 1015.5 hPa North 1.1 km/h 6.4 km/h 87% 0 mm 0 W/m2
02:09 2.2 °C 0.8 °C 1015.5 hPa North 0.6 km/h 4.8 km/h 87% 0 mm 0 W/m2
02:14 2.2 °C 0.8 °C 1015.5 hPa North 1.6 km/h 6.4 km/h 87% 0 mm 0 W/m2
02:19 2.2 °C 0.8 °C 1015.5 hPa NE 6.3 km/h 14.5 km/h 87% 0 mm 0 W/m2
02:24 2.2 °C 0.8 °C 1015.5 hPa NE 3.9 km/h 12.9 km/h 87% 0 mm 0 W/m2
02:29 2.2 °C 0.8 °C 1015.5 hPa NE 5.6 km/h 14.5 km/h 87% 0 mm 0 W/m2
02:34 2.2 °C 0.8 °C 1015.5 hPa NE 4.3 km/h 11.3 km/h 87% 0 mm 0 W/m2
02:39 2.2 °C 0.8 °C 1015.5 hPa NNE 8.7 km/h 17.7 km/h 87% 0 mm 0 W/m2
02:44 2.3 °C 0.9 °C 1015.5 hPa NNE 4.5 km/h 11.3 km/h 87% 0 mm 0 W/m2
02:49 2.3 °C 0.9 °C 1015.5 hPa NNE 4.5 km/h 12.9 km/h 87% 0 mm 0 W/m2
02:54 2.3 °C 0.9 °C 1015.5 hPa NNE 4.3 km/h 11.3 km/h 87% 0 mm 0 W/m2
02:59 2.3 °C 0.9 °C 1015.5 hPa NNE 2.6 km/h 9.7 km/h 87% 0 mm 0 W/m2
03:04 2.3 °C 0.9 °C 1015.5 hPa NNE 3.4 km/h 9.7 km/h 87% 0 mm 0 W/m2
03:09 2.4 °C 1 °C 1015.5 hPa NNE 1.9 km/h 9.7 km/h 87% 0 mm 0 W/m2
03:14 2.4 °C 1 °C 1015.8 hPa NNE 1.6 km/h 8 km/h 87% 0 mm 0 W/m2
03:19 2.4 °C 1 °C 1015.8 hPa NNE 1.8 km/h 8 km/h 87% 0 mm 0 W/m2
03:29 2.4 °C 1 °C 1015.8 hPa NNE 2.7 km/h 8 km/h 87% 0 mm 0 W/m2
03:34 2.4 °C 1 °C 1015.8 hPa NNE 1.3 km/h 8 km/h 87% 0 mm 0 W/m2
03:39 2.4 °C 1 °C 1016.1 hPa NNE 0.5 km/h 8 km/h 87% 0 mm 0 W/m2
03:44 2.4 °C 1 °C 1016.1 hPa NNE 2.4 km/h 9.7 km/h 87% 0 mm 0 W/m2
03:49 2.3 °C 0.9 °C 1016.1 hPa NNE 0.3 km/h 3.2 km/h 87% 0 mm 0 W/m2
03:54 2.3 °C 0.9 °C 1016.1 hPa NNE 1 km/h 4.8 km/h 87% 0 mm 0 W/m2
03:59 2.3 °C 0.9 °C 1016.1 hPa Calm   1.6 km/h 87% 0 mm 0 W/m2
04:04 2.3 °C 0.9 °C 1016.1 hPa NNE 0.3 km/h 3.2 km/h 87% 0 mm 0 W/m2
04:09 2.2 °C 0.8 °C 1016.1 hPa Calm   3.2 km/h 87% 0 mm 0 W/m2
04:14 2.2 °C 0.8 °C 1016.1 hPa NNE 1.9 km/h 4.8 km/h 87% 0 mm 0 W/m2
04:19 2.1 °C 0.7 °C 1016.1 hPa NNE 3.9 km/h 6.4 km/h 87% 0 mm 0 W/m2
04:24 2 °C 0.6 °C 1016.5 hPa NNE 0.3 km/h 4.8 km/h 87% 0 mm 0 W/m2
04:29 2 °C 0.6 °C 1016.5 hPa NNE 0.3 km/h 3.2 km/h 87% 0 mm 0 W/m2
04:34 1.9 °C 0.5 °C 1016.5 hPa NNE 3.1 km/h 4.8 km/h 87% 0 mm 0 W/m2
04:39 1.8 °C 0.4 °C 1016.5 hPa NNE 1.3 km/h 6.4 km/h 87% 0 mm 0 W/m2
04:44 1.8 °C 0.5 °C 1016.5 hPa NNE 0.6 km/h 4.8 km/h 88% 0 mm 0 W/m2
04:49 1.8 °C 0.5 °C 1016.5 hPa NNE 0.8 km/h 4.8 km/h 88% 0 mm 0 W/m2
04:54 1.8 °C 0.5 °C 1016.5 hPa NNE 2.6 km/h 6.4 km/h 88% 0 mm 0 W/m2
04:59 1.8 °C 0.5 °C 1016.5 hPa NNE 0.8 km/h 4.8 km/h 88% 0 mm 0 W/m2
05:04 1.8 °C 0.6 °C 1016.8 hPa NNE 1.6 km/h 6.4 km/h 88% 0 mm 0 W/m2
05:09 1.8 °C 0.6 °C 1016.8 hPa NNE 1 km/h 6.4 km/h 88% 0 mm 0 W/m2
05:14 1.8 °C 0.5 °C 1016.8 hPa Calm     88% 0 mm 0 W/m2
05:19 1.8 °C 0.5 °C 1016.8 hPa Calm     88% 0 mm 0 W/m2
05:23 1.8 °C 0.5 °C 1016.8 hPa Calm     88% 0 mm 0 W/m2
05:29 1.8 °C 0.5 °C 1016.8 hPa NNE 0.3 km/h 6.4 km/h 88% 0 mm 0 W/m2
05:34 1.8 °C 0.5 °C 1016.8 hPa NNE 2.7 km/h 6.4 km/h 88% 0 mm 0 W/m2
05:39 1.7 °C 0.4 °C 1016.8 hPa NNE 2.1 km/h 6.4 km/h 88% 0 mm 0 W/m2
05:44 1.7 °C 0.4 °C 1016.8 hPa Calm   1.6 km/h 88% 0 mm 0 W/m2
05:49 1.7 °C 0.4 °C 1017.2 hPa NNE 0.6 km/h 4.8 km/h 88% 0 mm 0 W/m2
05:54 1.7 °C 0.4 °C 1017.2 hPa Calm   1.6 km/h 88% 0 mm 0 W/m2
05:59 1.7 °C 0.4 °C 1017.2 hPa Calm     88% 0 mm 0 W/m2
06:04 1.7 °C 0.4 °C 1017.2 hPa Calm     88% 0 mm 0 W/m2
06:14 1.7 °C 0.4 °C 1017.2 hPa Calm     88% 0 mm 0 W/m2
06:19 1.7 °C 0.4 °C 1017.5 hPa Calm     88% 0 mm 0 W/m2
06:24 1.8 °C 0.5 °C 1017.5 hPa Calm     88% 0 mm 0 W/m2
06:29 1.7 °C 0.4 °C 1017.5 hPa NNE 0.6 km/h 4.8 km/h 88% 0 mm 5 W/m2
06:34 1.7 °C 0.4 °C 1017.5 hPa NNE 1.9 km/h 4.8 km/h 88% 0 mm 7 W/m2
06:39 1.7 °C 0.4 °C 1017.5 hPa Calm   3.2 km/h 88% 0 mm 7 W/m2
06:44 1.6 °C 0.3 °C 1017.5 hPa Calm     88% 0 mm 9 W/m2
06:49 1.6 °C 0.3 °C 1017.8 hPa Calm     88% 0 mm 12 W/m2
06:54 1.6 °C 0.4 °C 1017.8 hPa NNE 0.3 km/h 3.2 km/h 88.6% 0 mm 14 W/m2
06:59 1.4 °C 0.2 °C 1017.8 hPa NNE 0.6 km/h 4.8 km/h 88.2% 0 mm 18 W/m2
07:04 1.4 °C 0.3 °C 1017.8 hPa Calm     89% 0 mm 21 W/m2
07:09 1.3 °C 0.2 °C 1017.8 hPa Calm     89% 0 mm 26 W/m2
07:14 1.3 °C 0.2 °C 1018.2 hPa NNE 1 km/h 3.2 km/h 89% 0 mm 30 W/m2
07:19 1.3 °C 0.2 °C 1018.2 hPa NNE 2.1 km/h 3.2 km/h 89% 0 mm 33 W/m2
07:24 1.3 °C 0.2 °C 1018.2 hPa NNE 0.6 km/h 4.8 km/h 89% 0 mm 39 W/m2
07:29 1.4 °C 0.3 °C 1018.2 hPa Calm     89% 0 mm 42 W/m2
07:34 1.4 °C 0.3 °C 1018.5 hPa Calm     89% 0 mm 51 W/m2
07:39 1.4 °C 0.3 °C 1018.5 hPa Calm     89% 0 mm 54 W/m2
07:44 1.4 °C 0.3 °C 1018.5 hPa Calm     89.2% 0 mm 63 W/m2
07:49 1.6 °C 0.6 °C 1018.5 hPa Calm     89.8% 0 mm 72 W/m2
07:54 1.7 °C 0.7 °C 1018.5 hPa Calm     90% 0 mm 77 W/m2
07:59 1.8 °C 0.8 °C 1018.5 hPa Calm     90% 0 mm 81 W/m2
08:04 1.9 °C 0.9 °C 1018.5 hPa Calm     90% 0 mm 84 W/m2
08:09 1.9 °C 0.9 °C 1018.5 hPa Calm     90% 0 mm 86 W/m2
08:14 2 °C 1 °C 1018.5 hPa Calm     90% 0 mm 93 W/m2
08:19 1.9 °C 0.9 °C 1018.8 hPa NNE 1 km/h 4.8 km/h 90% 0 mm 104 W/m2
08:24 2 °C 0.9 °C 1018.8 hPa NNE 5 km/h 8 km/h 89.2% 0 mm 97 W/m2
08:29 1.9 °C 0.8 °C 1018.8 hPa NNE 5.1 km/h 8 km/h 89% 0 mm 91 W/m2
08:34 1.9 °C 0.8 °C 1018.8 hPa NNE 4 km/h 8 km/h 89% 0 mm 91 W/m2
08:39 1.8 °C 0.8 °C 1018.8 hPa NNE 3.7 km/h 6.4 km/h 89% 0 mm 84 W/m2
08:44 1.8 °C 0.7 °C 1018.8 hPa North 5.3 km/h 8 km/h 89% 0 mm 84 W/m2
08:49 1.7 °C 0.6 °C 1018.8 hPa North 6.6 km/h 8 km/h 89% 0 mm 97 W/m2
08:54 1.7 °C 0.6 °C 1018.8 hPa NNW 3.9 km/h 8 km/h 89% 0 mm 271 W/m2
08:59 2.1 °C 1 °C 1018.8 hPa NNW 3.5 km/h 6.4 km/h 89% 0 mm 288 W/m2
09:04 2.4 °C 1.3 °C 1019.2 hPa NNW 3.5 km/h 6.4 km/h 88.8% 0 mm 302 W/m2
09:09 3.1 °C 1.7 °C 1019.2 hPa NNW 2.3 km/h 6.4 km/h 88% 0 mm 315 W/m2
09:14 3.3 °C 1.7 °C 1019.2 hPa NNW 2.6 km/h 8 km/h 86.2% 0 mm 336 W/m2
09:19 3.6 °C 1.8 °C 1019.2 hPa NNW 1.9 km/h 6.4 km/h 85% 0 mm 362 W/m2
09:24 3.8 °C 1.8 °C 1019.2 hPa NW 7.2 km/h 12.9 km/h 83.5% 0 mm 425 W/m2
09:29 4.1 °C 1.7 °C 1019.2 hPa NNW 7.7 km/h 16.1 km/h 81.8% 0 mm 478 W/m2
09:34 4.6 °C 2.2 °C 1019.2 hPa North 4.7 km/h 12.9 km/h 81.8% 0 mm 471 W/m2
09:39 4.6 °C 2 °C 1019.5 hPa NNE 4.5 km/h 12.9 km/h 80.4% 0 mm 139 W/m2
09:44 4.3 °C 1.7 °C 1019.5 hPa NNW 5.8 km/h 9.7 km/h 80.2% 0 mm 146 W/m2
09:49 4.3 °C 1.8 °C 1019.5 hPa NNW 6 km/h 11.3 km/h 81% 0 mm 186 W/m2
09:54 4.3 °C 1.8 °C 1019.5 hPa NNW 9 km/h 16.1 km/h 81% 0 mm 183 W/m2
09:59 4.3 °C 1.8 °C 1019.5 hPa NNW 9.2 km/h 14.5 km/h 81% 0 mm 153 W/m2
10:04 4.2 °C 1.7 °C 1019.5 hPa NW 7.4 km/h 14.5 km/h 81% 0 mm 84 W/m2
10:09 4.1 °C 1.7 °C 1019.5 hPa NNW 6.4 km/h 12.9 km/h 81.4% 0 mm 501 W/m2
10:14 4.3 °C 2 °C 1019.5 hPa North 7.9 km/h 16.1 km/h 82% 0 mm 473 W/m2
10:19 4.4 °C 2.1 °C 1019.9 hPa North 10.3 km/h 16.1 km/h 81.8% 0 mm 473 W/m2
10:24 4.3 °C 1.8 °C 1019.9 hPa NNE 12.9 km/h 20.9 km/h 81.2% 0 mm 563 W/m2
10:29 4.6 °C 2.3 °C 1019.9 hPa North 9.7 km/h 17.7 km/h 82% 0 mm 580 W/m2
10:34 4.9 °C 2.2 °C 1019.9 hPa NNE 9 km/h 17.7 km/h 80.2% 0 mm 568 W/m2
10:39 4.9 °C 2.2 °C 1019.9 hPa NNW 7.6 km/h 14.5 km/h 79.6% 0 mm 610 W/m2
10:44 4.9 °C 2.1 °C 1019.9 hPa North 9.7 km/h 16.1 km/h 79.2% 0 mm 628 W/m2
10:49 4.8 °C 1.9 °C 1019.9 hPa NNW 11.3 km/h 16.1 km/h 78.2% 0 mm 654 W/m2
10:54 5.1 °C 2 °C 1019.9 hPa NNE 10.5 km/h 19.3 km/h 77.8% 0 mm 687 W/m2
10:59 5.2 °C 1.9 °C 1019.9 hPa NNE 10.3 km/h 20.9 km/h 76.6% 0 mm 721 W/m2
11:04 5.7 °C 2.1 °C 1019.9 hPa NNW 10 km/h 19.3 km/h 75.2% 0 mm 784 W/m2
11:09 5.6 °C 2 °C 1019.9 hPa NNW 9.5 km/h 17.7 km/h 75% 0 mm 795 W/m2
11:14 5.4 °C 1.8 °C 1019.9 hPa NNW 12.6 km/h 19.3 km/h 75% 0 mm 793 W/m2
11:19 5.2 °C 1.6 °C 1020.2 hPa NNW 9.7 km/h 16.1 km/h 75% 0 mm 294 W/m2
11:24 5.2 °C 1.6 °C 1020.2 hPa North 9.2 km/h 14.5 km/h 75% 0 mm 174 W/m2
11:29 5 °C 1.2 °C 1020.2 hPa North 11.3 km/h 14.5 km/h 74% 0 mm 269 W/m2
11:34 5 °C 1.4 °C 1020.2 hPa NNE 9.7 km/h 22.5 km/h 75% 0 mm 306 W/m2
11:39 5.2 °C 1.7 °C 1020.2 hPa North 10.6 km/h 20.9 km/h 75.2% 0 mm 854 W/m2
11:44 5.2 °C 1.4 °C 1020.2 hPa NNE 8.4 km/h 14.5 km/h 74.2% 0 mm 285 W/m2
11:49 5.7 °C 1.8 °C 1020.2 hPa NE 4.7 km/h 12.9 km/h 73.6% 0 mm 904 W/m2
11:53 6.4 °C 1.9 °C 1020.2 hPa NW 6.8 km/h 12.9 km/h 70.3% 0 mm 909 W/m2
11:59 6.3 °C 1.3 °C 1020.2 hPa NNW 7.2 km/h 14.5 km/h 67.8% 0 mm 863 W/m2
12:04 5.9 °C 0.9 °C 1020.5 hPa North 9.7 km/h 14.5 km/h 67.8% 0 mm 216 W/m2
12:09 5.8 °C 0.6 °C 1020.5 hPa North 4.7 km/h 12.9 km/h 67.2% 0 mm 295 W/m2
12:14 5.9 °C 0.7 °C 1020.5 hPa NNE 7.7 km/h 12.9 km/h 66.6% 0 mm 1027 W/m2
12:19 5.9 °C 0.6 °C 1020.5 hPa North 6.1 km/h 12.9 km/h 66.2% 0 mm 522 W/m2
12:24 6 °C 0.6 °C 1020.5 hPa North 5.6 km/h 11.3 km/h 66% 0 mm 294 W/m2
12:29 6.1 °C 1.1 °C 1020.5 hPa North 4 km/h 11.3 km/h 67.8% 0 mm 271 W/m2
12:34 6.2 °C 1 °C 1020.5 hPa NW 4.3 km/h 11.3 km/h 67.2% 0 mm 893 W/m2
12:39 6.7 °C 1.5 °C 1020.5 hPa NNW 9.7 km/h 17.7 km/h 67.2% 0 mm 963 W/m2
12:44 6.8 °C 1.6 °C 1020.5 hPa North 9.3 km/h 17.7 km/h 67.2% 0 mm 371 W/m2
12:49 6.6 °C 1.3 °C 1020.5 hPa North 8.7 km/h 17.7 km/h 66.8% 0 mm 211 W/m2
12:54 6.3 °C 1.4 °C 1020.5 hPa North 6.6 km/h 14.5 km/h 68.6% 0 mm 220 W/m2
12:59 6.4 °C 1.1 °C 1020.5 hPa North 7.6 km/h 14.5 km/h 66.4% 0 mm 911 W/m2
13:04 6.9 °C 1.2 °C 1020.5 hPa NNE 10 km/h 19.3 km/h 65% 0 mm 932 W/m2
13:09 7.4 °C 1.9 °C 1020.5 hPa NNW 10.5 km/h 19.3 km/h 66.2% 0 mm 953 W/m2
13:14 6.9 °C 1.2 °C 1020.9 hPa North 11.3 km/h 20.9 km/h 64.6% 0 mm 452 W/m2
13:19 6.3 °C 0.9 °C 1020.9 hPa North 9.2 km/h 16.1 km/h 66.2% 0 mm 130 W/m2
13:24 6.4 °C 1.1 °C 1020.9 hPa NNW 6.6 km/h 16.1 km/h 66.6% 0 mm 849 W/m2
13:29 7.2 °C 1.2 °C 1020.9 hPa North 8 km/h 16.1 km/h 63.4% 0 mm 891 W/m2
13:34 7.2 °C 0.1 °C 1020.9 hPa North 12.9 km/h 22.5 km/h 58.4% 0 mm 278 W/m2
13:39 6.8 °C -0.3 °C 1020.9 hPa NW 8.9 km/h 22.5 km/h 58.3% 0 mm 343 W/m2
13:44 7 °C -0.2 °C 1020.9 hPa NW 8 km/h 16.1 km/h 58.4% 0 mm 846 W/m2
13:49 7.4 °C 0.2 °C 1020.9 hPa North 8.9 km/h 16.1 km/h 58.2% 0 mm 758 W/m2
13:54 7.1 °C 1 °C 1021.2 hPa NE 16.4 km/h 27.4 km/h 63% 0 mm 199 W/m2
13:59 6.2 °C 1.3 °C 1021.2 hPa NNE 13.4 km/h 22.5 km/h 68.6% 0 mm 186 W/m2
14:04 5.8 °C 1.3 °C 1021.2 hPa NNE 6 km/h 16.1 km/h 70.4% 0 mm 311 W/m2
14:09 6 °C 1.7 °C 1021.2 hPa NNE 5.5 km/h 11.3 km/h 71.6% 0 mm 824 W/m2
14:14 6.7 °C 2 °C 1021.2 hPa NNE 7.7 km/h 14.5 km/h 69.4% 0 mm 784 W/m2
14:19 7.3 °C 1.8 °C 1021.2 hPa NNE 5.6 km/h 14.5 km/h 65.8% 0 mm 765 W/m2
14:24 7.3 °C 1.4 °C 1021.2 hPa NNW 6.4 km/h 14.5 km/h 64% 0 mm 758 W/m2
14:29 7.4 °C 0.8 °C 1021.2 hPa North 8.7 km/h 16.1 km/h 61% 0 mm 770 W/m2
14:34 7.9 °C 0.9 °C 1021.2 hPa NW 7.2 km/h 14.5 km/h 59.4% 0 mm 798 W/m2
14:39 8.1 °C 1.3 °C 1021.2 hPa NNW 11.9 km/h 19.3 km/h 60% 0 mm 902 W/m2
14:44 7.9 °C 1.3 °C 1021.2 hPa NNW 12.6 km/h 24.1 km/h 61% 0 mm 907 W/m2
14:49 7.6 °C 1.3 °C 1021.2 hPa NNE 15.9 km/h 20.9 km/h 62.2% 0 mm 814 W/m2
14:54 7.6 °C 0.6 °C 1021.2 hPa NE 9.3 km/h 20.9 km/h 58.8% 0 mm 809 W/m2
14:59 8.4 °C 0.6 °C 1021.2 hPa NNE 10.8 km/h 22.5 km/h 56% 0 mm 777 W/m2
15:04 7.9 °C 0.3 °C 1021.2 hPa NNE 10 km/h 19.3 km/h 57% 0 mm 765 W/m2
15:09 8.1 °C 0.7 °C 1021.2 hPa North 12.9 km/h 22.5 km/h 57.2% 0 mm 765 W/m2
15:14 7.6 °C 0.2 °C 1021.2 hPa North 14.5 km/h 19.3 km/h 57.5% 0 mm 179 W/m2
15:19 7.6 °C 0.7 °C 1021.2 hPa NNE 7.2 km/h 17.7 km/h 59.6% 0 mm 694 W/m2
15:24 7.8 °C 0.7 °C 1021.2 hPa NNW 8.9 km/h 12.9 km/h 58.6% 0 mm 559 W/m2
15:29 7.4 °C 0.4 °C 1021.2 hPa NNE 9.2 km/h 14.5 km/h 58.8% 0 mm 107 W/m2
15:34 7.2 °C 0.2 °C 1021.2 hPa NNE 6.3 km/h 9.7 km/h 59% 0 mm 81 W/m2
15:39 7.1 °C 0.4 °C 1021.2 hPa NNE 5.1 km/h 8 km/h 60.2% 0 mm 72 W/m2
15:44 7.1 °C 0.6 °C 1021.2 hPa NNE 2.4 km/h 9.7 km/h 61.2% 0 mm 121 W/m2
15:49 7.1 °C 0.8 °C 1021.2 hPa NNW 5 km/h 9.7 km/h 61.8% 0 mm 654 W/m2
15:54 7.4 °C 0.8 °C 1021.2 hPa WNW 5 km/h 12.9 km/h 60.8% 0 mm 687 W/m2
15:59 7.9 °C 0.8 °C 1021.2 hPa WNW 7.7 km/h 14.5 km/h 58.8% 0 mm 756 W/m2
16:04 8.2 °C 0.8 °C 1021.2 hPa WNW 4.3 km/h 16.1 km/h 58% 0 mm 756 W/m2
16:09 8.6 °C 1.1 °C 1021.2 hPa West 8 km/h 12.9 km/h 57.4% 0 mm 705 W/m2
16:14 8.7 °C 0.9 °C 1021.2 hPa NW 7.2 km/h 16.1 km/h 56.6% 0 mm 596 W/m2
16:19 8.3 °C 0.4 °C 1021.2 hPa NW 5.5 km/h 14.5 km/h 55.8% 0 mm 295 W/m2
16:24 8.2 °C 0.6 °C 1021.2 hPa NW 1.6 km/h 6.4 km/h 56.5% 0 mm 160 W/m2
16:29 8 °C 1.1 °C 1021.2 hPa WNW 4.5 km/h 9.7 km/h 59.6% 0 mm 102 W/m2
16:34 7.7 °C 1.1 °C 1021.2 hPa WNW 4.5 km/h 11.3 km/h 61% 0 mm 100 W/m2
16:39 7.6 °C 1.4 °C 1021.2 hPa West 4.7 km/h 9.7 km/h 62.4% 0 mm 84 W/m2
16:44 7.5 °C 1.2 °C 1021.2 hPa West 4 km/h 9.7 km/h 62% 0 mm 76 W/m2
16:49 7.5 °C 1.2 °C 1021.2 hPa West 6 km/h 9.7 km/h 62% 0 mm 97 W/m2
16:54 7.4 °C 1.2 °C 1021.2 hPa West 0.3 km/h 6.4 km/h 62.4% 0 mm 120 W/m2
16:59 7.6 °C 1.4 °C 1021.2 hPa West 2.1 km/h 4.8 km/h 62.6% 0 mm 165 W/m2
17:04 7.9 °C 1.5 °C 1021.2 hPa West 2.3 km/h 9.7 km/h 61.6% 0 mm 496 W/m2
17:09 8.1 °C 1.3 °C 1021.6 hPa West 7.6 km/h 11.3 km/h 60.2% 0 mm 213 W/m2
17:14 8 °C 1 °C 1021.6 hPa WNW 7.4 km/h 12.9 km/h 59.4% 0 mm 144 W/m2
17:19 7.4 °C 0.8 °C 1021.6 hPa NW 23.8 km/h 40.2 km/h 61% 0 mm 137 W/m2
17:24 6.5 °C 1.4 °C 1021.9 hPa NW 16.7 km/h 32.2 km/h 67.6% 0 mm 135 W/m2
17:28 6.2 °C 1.7 °C 1021.9 hPa WNW 13.4 km/h 22.5 km/h 71% 0 mm 167 W/m2
17:34 6.3 °C 2.1 °C 1022.2 hPa NW 7.9 km/h 19.3 km/h 72% 0 mm 445 W/m2
17:39 6.7 °C 2.2 °C 1022.2 hPa NW 10.9 km/h 17.7 km/h 70.6% 0 mm 411 W/m2
17:44 7 °C 2.1 °C 1022.2 hPa North 7.2 km/h 20.9 km/h 68.4% 0 mm 392 W/m2
17:49 7.1 °C 2.2 °C 1022.2 hPa North 11.6 km/h 27.4 km/h 68.4% 0 mm 403 W/m2
17:54 6.3 °C 1.9 °C 1022.2 hPa NNE 17.7 km/h 30.6 km/h 71.2% 0 mm 160 W/m2
17:59 5.6 °C 1.8 °C 1022.6 hPa North 14.5 km/h 30.6 km/h 74% 0 mm 151 W/m2
18:04 5.1 °C 1.7 °C 1022.9 hPa NNE 11.9 km/h 24.1 km/h 75.8% 0.25 mm 97 W/m2
18:09 4.8 °C 1.7 °C 1022.9 hPa NNE 11.3 km/h 20.9 km/h 77.6% 0.25 mm 65 W/m2
18:14 4.7 °C 1.7 °C 1022.9 hPa NE 10.1 km/h 17.7 km/h 78.2% 0.25 mm 79 W/m2
18:18 4.6 °C 1.8 °C 1022.9 hPa NE 10 km/h 22.5 km/h 79% 0.25 mm 258 W/m2
18:24 4.8 °C 2 °C 1022.9 hPa NNE 7.4 km/h 19.3 km/h 79% 0.25 mm 299 W/m2
18:29 5.1 °C 2.2 °C 1022.9 hPa NNE 6.4 km/h 12.9 km/h 79% 0.25 mm 290 W/m2
18:34 5.3 °C 2.3 °C 1022.9 hPa NNE 5.3 km/h 16.1 km/h 78.6% 0.25 mm 220 W/m2
18:39 5.3 °C 2.3 °C 1022.9 hPa NNE 6.4 km/h 11.3 km/h 78% 0.25 mm 97 W/m2
18:44 5.2 °C 2 °C 1023.2 hPa NNW 4.8 km/h 11.3 km/h 77% 0.25 mm 54 W/m2
18:49 5.1 °C 1.9 °C 1023.2 hPa NNW 2.9 km/h 6.4 km/h 77% 0.25 mm 46 W/m2
18:54 5.1 °C 1.8 °C 1023.2 hPa NNW 1.6 km/h 4.8 km/h 77% 0.25 mm 37 W/m2
18:59 5 °C 1.8 °C 1023.2 hPa NNW 1.8 km/h 4.8 km/h 77% 0.25 mm 30 W/m2
19:04 4.9 °C 1.7 °C 1023.2 hPa NNW 3.2 km/h 4.8 km/h 76.8% 0.25 mm 25 W/m2
19:09 4.9 °C 1.6 °C 1023.2 hPa NNW 3.2 km/h 6.4 km/h 76.4% 0 mm 23 W/m2
19:14 4.9 °C 1.7 °C 1023.2 hPa NNW 2.7 km/h 4.8 km/h 76.5% 0 mm 28 W/m2
19:19 5 °C 1.8 °C 1023.6 hPa NNW 4.5 km/h 9.7 km/h 77% 0 mm 40 W/m2
19:24 5.1 °C 1.8 °C 1023.6 hPa NW 4.7 km/h 8 km/h 76.8% 0 mm 40 W/m2
19:29 5.1 °C 1.7 °C 1023.6 hPa NW 2.6 km/h 8 km/h 76% 0 mm 28 W/m2
19:34 5.3 °C 1.8 °C 1023.6 hPa NW 3.1 km/h 6.4 km/h 76% 0 mm 28 W/m2
19:39 5.3 °C 1.9 °C 1023.6 hPa NW 3.5 km/h 6.4 km/h 76% 0 mm 26 W/m2
19:44 5.2 °C 1.6 °C 1023.6 hPa NW 2.9 km/h 4.8 km/h 75% 0 mm 14 W/m2
19:49 5 °C 1.4 °C 1023.9 hPa NW 1.9 km/h 4.8 km/h 75.4% 0 mm 11 W/m2
19:54 4.9 °C 1.5 °C 1023.9 hPa NW 4 km/h 9.7 km/h 76% 0 mm 9 W/m2
19:59 4.8 °C 1.4 °C 1023.9 hPa West 6.4 km/h 12.9 km/h 76.2% 0 mm 7 W/m2
20:09 4.3 °C 1.3 °C 1023.9 hPa WNW 6.4 km/h 12.9 km/h 78% 0 mm 0 W/m2
20:14 4.2 °C 1.2 °C 1023.9 hPa WNW 5.1 km/h 11.3 km/h 78.4% 0 mm 0 W/m2
20:19 4.1 °C 1.2 °C 1024.3 hPa WNW 7.6 km/h 12.9 km/h 79% 0 mm 0 W/m2
20:24 3.8 °C 1.1 °C 1024.3 hPa WNW 5.6 km/h 12.9 km/h 79.4% 0 mm 0 W/m2
20:29 3.8 °C 1.2 °C 1024.3 hPa WNW 4.5 km/h 9.7 km/h 80% 0 mm 0 W/m2
20:34 3.7 °C 1.1 °C 1024.6 hPa WNW 2.4 km/h 9.7 km/h 80% 0 mm 0 W/m2
20:39 3.6 °C 1.1 °C 1024.6 hPa WNW 0.3 km/h 3.2 km/h 80.8% 0 mm 0 W/m2
20:44 3.6 °C 1.1 °C 1024.6 hPa Calm     81% 0 mm 0 W/m2
20:49 3.5 °C 1 °C 1024.6 hPa Calm     81% 0 mm 0 W/m2
20:54 3.5 °C 1.2 °C 1024.6 hPa Calm     82% 0 mm 0 W/m2
20:59 3.3 °C 1 °C 1024.6 hPa WNW 1.4 km/h 4.8 km/h 82% 0 mm 0 W/m2
21:04 3.2 °C 0.9 °C 1024.9 hPa WNW 2.3 km/h 4.8 km/h 82.2% 0 mm 0 W/m2
21:09 2.9 °C 0.8 °C 1024.9 hPa WNW 2.1 km/h 4.8 km/h 83% 0 mm 0 W/m2
21:14 2.8 °C 0.7 °C 1024.9 hPa WNW 2.1 km/h 4.8 km/h 83% 0 mm 0 W/m2
21:19 2.7 °C 0.7 °C 1024.9 hPa WNW 2.1 km/h 4.8 km/h 83.2% 0 mm 0 W/m2
21:24 2.6 °C 0.7 °C 1024.9 hPa WNW 0.3 km/h 3.2 km/h 84% 0 mm 0 W/m2
21:29 2.4 °C 0.5 °C 1024.9 hPa WNW 1 km/h 3.2 km/h 84% 0 mm 0 W/m2
21:34 2.4 °C 0.5 °C 1024.9 hPa Calm   3.2 km/h 84.2% 0 mm 0 W/m2
21:39 2.4 °C 0.6 °C 1025.3 hPa WNW 1 km/h 4.8 km/h 85% 0 mm 0 W/m2
21:44 2.4 °C 0.6 °C 1025.3 hPa WNW 2.7 km/h 4.8 km/h 85% 0 mm 0 W/m2
21:54 2.3 °C 0.4 °C 1025.3 hPa WNW 1 km/h 3.2 km/h 85% 0 mm 0 W/m2
21:59 2.1 °C 0.3 °C 1025.3 hPa Calm   1.6 km/h 85% 0 mm 0 W/m2
22:04 1.9 °C 0.2 °C 1025.3 hPa WNW 0.6 km/h 4.8 km/h 85% 0 mm 0 W/m2
22:09 1.9 °C 0.2 °C 1025.3 hPa WNW 1 km/h 4.8 km/h 85.4% 0 mm 0 W/m2
22:14 1.8 °C 0.2 °C 1025.3 hPa WNW 0.6 km/h 3.2 km/h 85.8% 0 mm 0 W/m2
22:19 1.7 °C 0.1 °C 1025.6 hPa WNW 1.1 km/h 3.2 km/h 85.8% 0 mm 0 W/m2
22:24 1.7 °C 0.1 °C 1025.6 hPa Calm   3.2 km/h 86% 0 mm 0 W/m2
22:29 1.6 °C 0 °C 1025.6 hPa Calm     86% 0 mm 0 W/m2
22:34 1.4 °C -0.2 °C 1025.6 hPa Calm   1.6 km/h 86% 0 mm 0 W/m2
22:39 1.3 °C -0.3 °C 1025.6 hPa WNW 4.5 km/h 6.4 km/h 86% 0 mm 0 W/m2
22:44 1.3 °C -0.2 °C 1025.6 hPa WNW 3.7 km/h 8 km/h 86.2% 0 mm 0 W/m2
22:49 1.3 °C -0.2 °C 1025.6 hPa Calm   4.8 km/h 86.5% 0 mm 0 W/m2
22:54 1.3 °C -0.2 °C 1025.6 hPa Calm     86.4% 0 mm 0 W/m2
22:59 1.3 °C -0.2 °C 1026 hPa Calm     86.6% 0 mm 0 W/m2
23:04 1.3 °C -0.2 °C 1026 hPa Calm     86.4% 0 mm 0 W/m2
23:14 1.1 °C -0.5 °C 1026 hPa Calm   1.6 km/h 86% 0 mm 0 W/m2
23:19 1.1 °C -0.3 °C 1026 hPa Calm     87% 0 mm 0 W/m2
23:24 1 °C -0.4 °C 1026 hPa Calm     87% 0 mm 0 W/m2
23:29 1 °C -0.4 °C 1026 hPa Calm     87% 0 mm 0 W/m2
23:34 0.9 °C -0.5 °C 1026.3 hPa Calm     87% 0 mm 0 W/m2
23:39 0.8 °C -0.6 °C 1026.3 hPa Calm     87% 0 mm 0 W/m2
23:44 0.7 °C -0.7 °C 1026.3 hPa Calm     87% 0 mm 0 W/m2
23:49 0.7 °C -0.7 °C 1026.3 hPa Calm     87% 0 mm 0 W/m2
23:54 0.6 °C -0.8 °C 1026.3 hPa Calm   1.6 km/h 87% 0 mm 0 W/m2
23:59 0.4 °C -0.9 °C 1026.3 hPa WNW 2.7 km/h 4.8 km/h 87% 0 mm 0 W/m2
Bath Spa Weather
Compliments of Weather Underground - 2 mb